Saint Francis, Illinois
Current Conditions -  °F | °C
As of 12:55 AM on Saturday 25 Oct 2014 (Local Time) from K1H2 Reporting Station
Broken Clouds Broken Clouds  
Wind Chill: 58°   Ceiling: 5000
Heat Index: 58°   Visibility: 10mi
Dew Point: 50°   Wind: 0mph
Humidity: 74%   Direction: NA
Pressure: 30"   Gusts: NA
Location:  39.1301°N, 88.4695°W
Report Text: K1H2 250555Z AUTO 00000KT 10SM BKN050 BKN065 15/10 A3000 RMK AO2 T01460100 10155 20105 402110090
Loading
Personal Weather Stations






























Interactive Weather Map
Tropical Storm Tracking
New forecast layout! Learn more

10-Day Weather Forecast

Advertisements
Track Severe Weather on mobile